Time;durP1;ratioP1;P1;durP2;ratioP2;P2;SDS_P1;SDS_P2;PMS_P1;PMS_P2;Temp;Humidity;BMP_temperature;BMP_pressure;BME280_temperature;BME280_humidity;BME280_pressure;Samples;Min_cycle;Max_cycle;Signal;HPM_P1;HPM_P2
2022/11/08 00:02:42;;;;;;;1999.90;999.90;;;12.60;99.90;;;;;;5082820;28;20067;-68
2022/11/08 00:16:04;;;;;;;1999.90;999.90;;;12.70;99.90;;;;;;5075673;28;20052;-68
2022/11/08 00:18:30;;;;;;;1999.90;999.90;;;12.70;99.90;;;;;;5085570;28;20513;-68
2022/11/08 00:21:00;;;;;;;1999.90;999.90;;;12.70;99.90;;;;;;5074710;28;20036;-68
2022/11/08 00:23:25;;;;;;;1999.90;999.90;;;12.80;99.90;;;;;;5071492;28;20051;-68
2022/11/08 00:25:54;;;;;;;1999.90;999.90;;;12.80;99.90;;;;;;5093867;28;20504;-68
2022/11/08 00:28:20;;;;;;;1999.90;999.90;;;12.80;99.90;;;;;;5075503;28;20127;-68
2022/11/08 00:30:45;;;;;;;1999.90;999.90;;;12.80;99.90;;;;;;5080215;28;20127;-68
2022/11/08 00:33:11;;;;;;;1999.90;999.90;;;12.80;99.90;;;;;;5079953;28;20044;-68
2022/11/08 00:35:36;;;;;;;1999.90;999.90;;;12.80;99.90;;;;;;5077090;28;20048;-68
2022/11/08 00:38:03;;;;;;;1999.90;999.90;;;12.80;99.90;;;;;;5060563;28;20044;-68
2022/11/08 00:40:28;;;;;;;1999.90;999.90;;;12.80;99.90;;;;;;5091574;28;20492;-68
2022/11/08 00:42:54;;;;;;;1999.90;999.90;;;12.80;99.90;;;;;;5080498;28;20056;-68
2022/11/08 00:45:19;;;;;;;1999.90;999.90;;;12.80;99.90;;;;;;5103273;28;20541;-68
2022/11/08 00:47:45;;;;;;;1999.90;999.90;;;12.80;99.90;;;;;;5089297;28;20496;-68
2022/11/08 00:50:10;;;;;;;1999.90;999.90;;;12.80;99.90;;;;;;5096011;28;20519;-68
2022/11/08 00:52:36;;;;;;;1999.90;999.90;;;12.80;99.90;;;;;;5076570;28;20492;-68
2022/11/08 00:55:01;;;;;;;1999.90;999.90;;;12.80;99.90;;;;;;5071254;28;20540;-68
2022/11/08 00:57:27;;;;;;;1999.90;999.90;;;12.80;99.90;;;;;;5072888;28;20416;-68
2022/11/08 00:59:52;;;;;;;1999.90;999.90;;;12.70;99.90;;;;;;5079530;28;20480;-68
2022/11/08 01:02:18;;;;;;;1999.90;999.90;;;12.70;99.90;;;;;;5082228;28;20036;-68
2022/11/08 01:04:44;;;;;;;1999.90;999.90;;;12.70;99.90;;;;;;5074720;28;20404;-68
2022/11/08 01:07:09;;;;;;;1999.90;999.90;;;12.70;99.90;;;;;;5075190;28;20404;-68
2022/11/08 01:09:35;;;;;;;1999.90;999.90;;;12.70;99.90;;;;;;5072793;28;20039;-68
2022/11/08 01:12:00;;;;;;;1999.90;999.90;;;12.70;99.90;;;;;;5076438;28;20066;-68
2022/11/08 01:14:26;;;;;;;1999.90;999.90;;;12.70;99.90;;;;;;5048301;28;20048;-68
2022/11/08 01:16:51;;;;;;;1999.90;999.90;;;12.70;99.90;;;;;;5067018;28;20040;-67
2022/11/08 01:19:17;;;;;;;1999.90;999.90;;;12.70;99.90;;;;;;5074670;28;20101;-68
2022/11/08 01:21:42;;;;;;;1999.90;999.90;;;12.70;99.90;;;;;;5081253;28;20024;-68
2022/11/08 01:24:08;;;;;;;1999.90;999.90;;;12.70;99.90;;;;;;5097133;28;20114;-68
2022/11/08 01:26:33;;;;;;;1999.90;999.90;;;12.60;99.90;;;;;;5080664;28;20055;-68
2022/11/08 01:28:59;;;;;;;1999.90;999.90;;;12.60;99.90;;;;;;5097696;28;21229;-68
2022/11/08 01:31:30;;;;;;;1999.90;999.90;;;12.60;99.90;;;;;;5096204;28;20044;-68
2022/11/08 01:33:57;;;;;;;1999.90;999.90;;;12.50;99.90;;;;;;5080412;28;20109;-68
2022/11/08 01:36:24;;;;;;;1999.90;999.90;;;12.40;99.90;;;;;;5080540;28;20095;-68
2022/11/08 01:38:51;;;;;;;1999.90;999.90;;;12.40;99.90;;;;;;5080698;28;20076;-68
2022/11/08 01:41:18;;;;;;;1999.90;999.90;;;12.30;99.90;;;;;;5077020;28;20090;-68
2022/11/08 01:43:49;;;;;;;1999.90;999.90;;;12.30;99.90;;;;;;5069642;28;20036;-68
2022/11/08 01:46:39;;;;;;;1999.90;999.90;;;12.20;99.90;;;;;;5081336;28;20154;-68
2022/11/08 01:49:17;;;;;;;1999.90;999.90;;;12.30;99.90;;;;;;5071100;28;20488;-68
2022/11/08 01:52:06;;;;;;;1999.90;999.90;;;12.20;99.90;;;;;;5094464;28;20448;-68
2022/11/08 01:54:50;;;;;;;1999.90;999.90;;;12.20;99.90;;;;;;5078318;28;20044;-67
2022/11/08 01:57:32;;;;;;;1999.90;999.90;;;12.10;99.90;;;;;;5068446;28;20048;-68
2022/11/08 02:00:00;;;;;;;1999.90;999.90;;;12.10;99.90;;;;;;5081229;28;20085;-68
2022/11/08 02:02:26;;;;;;;1999.90;999.90;;;12.10;99.90;;;;;;5091340;28;20072;-68
2022/11/08 02:04:53;;;;;;;1999.90;999.90;;;12.20;99.90;;;;;;5082004;28;20049;-68
2022/11/08 02:07:19;;;;;;;1999.90;999.90;;;12.20;99.90;;;;;;5084923;28;20048;-68
2022/11/08 02:09:46;;;;;;;1999.90;999.90;;;12.20;99.90;;;;;;5081252;28;20389;-68
2022/11/08 02:12:13;;;;;;;1999.90;999.90;;;12.20;99.90;;;;;;5085156;28;20466;-68
2022/11/08 02:14:39;;;;;;;1999.90;999.90;;;12.20;99.90;;;;;;5079639;28;20582;-68
2022/11/08 02:17:05;;;;;;;1999.90;999.90;;;12.20;99.90;;;;;;5090054;28;20049;-68
2022/11/08 02:19:42;;;;;;;1999.90;999.90;;;12.20;99.90;;;;;;5070385;28;20625;-68
2022/11/08 02:22:24;;;;;;;1999.90;999.90;;;12.10;99.90;;;;;;5075964;28;20059;-68
2022/11/08 02:24:51;;;;;;;1999.90;999.90;;;12.10;99.90;;;;;;5070819;28;20442;-67
2022/11/08 02:27:16;;;;;;;1999.90;999.90;;;12.10;99.90;;;;;;5069599;28;20043;-67
2022/11/08 02:29:42;;;;;;;1999.90;999.90;;;12.00;99.90;;;;;;5086274;28;20578;-68
2022/11/08 02:32:10;;;;;;;1999.90;999.90;;;12.00;99.90;;;;;;5086876;28;20050;-68
2022/11/08 02:34:47;;;;;;;1999.90;999.90;;;11.90;99.90;;;;;;5065119;28;20400;-68
2022/11/08 02:37:17;;;;;;;1999.90;999.90;;;11.90;99.90;;;;;;5070636;28;20051;-68
2022/11/08 02:39:43;;;;;;;1999.90;999.90;;;11.80;99.90;;;;;;5062098;28;20141;-68
2022/11/08 02:42:13;;;;;;;1999.90;999.90;;;11.80;99.90;;;;;;5070088;28;20448;-68
2022/11/08 02:44:38;;;;;;;1999.90;999.90;;;11.80;99.90;;;;;;5081948;28;20442;-68
2022/11/08 02:47:04;;;;;;;1999.90;999.90;;;11.80;99.90;;;;;;5089078;28;20066;-67
2022/11/08 02:49:30;;;;;;;1999.90;999.90;;;11.70;99.90;;;;;;5073457;28;20048;-68
2022/11/08 02:51:56;;;;;;;1999.90;999.90;;;11.70;99.90;;;;;;5089951;28;20510;-68
2022/11/08 02:54:22;;;;;;;1999.90;999.90;;;11.70;99.90;;;;;;5082082;28;20044;-68
2022/11/08 02:56:47;;;;;;;1999.90;999.90;;;11.70;99.90;;;;;;5099544;28;20041;-68
2022/11/08 02:59:13;;;;;;;1999.90;999.90;;;11.60;99.90;;;;;;5086967;28;20035;-68
2022/11/08 03:01:39;;;;;;;1999.90;999.90;;;11.60;99.90;;;;;;5073907;28;20046;-68
2022/11/08 03:04:04;;;;;;;1999.90;999.90;;;11.50;99.90;;;;;;5095655;28;20610;-68
2022/11/08 03:06:30;;;;;;;1999.90;999.90;;;11.50;99.90;;;;;;5071433;28;20412;-68
2022/11/08 03:08:55;;;;;;;1999.90;999.90;;;11.50;99.90;;;;;;5085422;28;20048;-68
2022/11/08 03:11:21;;;;;;;1999.90;999.90;;;11.50;99.90;;;;;;5095983;28;20052;-68
2022/11/08 03:13:47;;;;;;;1999.90;999.90;;;11.50;99.90;;;;;;5064788;28;20104;-68
2022/11/08 03:16:12;;;;;;;1999.90;999.90;;;11.50;99.90;;;;;;5089163;28;20047;-68
2022/11/08 03:18:38;;;;;;;1999.90;999.90;;;11.50;99.90;;;;;;5103817;28;20354;-68
2022/11/08 03:21:03;;;;;;;1999.90;999.90;;;11.40;99.90;;;;;;5067862;28;20508;-68
2022/11/08 03:23:30;;;;;;;1999.90;999.90;;;11.40;99.90;;;;;;5072184;28;20466;-68
2022/11/08 03:25:58;;;;;;;1999.90;999.90;;;11.30;99.90;;;;;;5086854;28;20047;-68
2022/11/08 03:28:24;;;;;;;1999.90;999.90;;;11.30;99.90;;;;;;5080161;28;20052;-68
2022/11/08 03:30:51;;;;;;;1999.90;999.90;;;11.30;99.90;;;;;;5074353;28;20032;-68
2022/11/08 03:33:17;;;;;;;1999.90;999.90;;;11.30;99.90;;;;;;5077158;28;20131;-67
2022/11/08 03:35:43;;;;;;;1999.90;999.90;;;11.30;99.90;;;;;;5080370;28;20124;-68
2022/11/08 03:38:08;;;;;;;1999.90;999.90;;;11.30;99.90;;;;;;5103985;28;20462;-68
2022/11/08 03:40:34;;;;;;;1999.90;999.90;;;11.20;99.90;;;;;;5084261;28;20140;-68
2022/11/08 03:42:59;;;;;;;1999.90;999.90;;;11.30;99.90;;;;;;5083687;28;20109;-68
2022/11/08 03:45:25;;;;;;;1999.90;999.90;;;11.30;99.90;;;;;;5093273;28;20492;-68
2022/11/08 03:47:50;;;;;;;1999.90;999.90;;;11.20;99.90;;;;;;5082471;28;20049;-67
2022/11/08 03:50:16;;;;;;;1999.90;999.90;;;11.20;99.90;;;;;;5075440;28;20052;-68
2022/11/08 03:52:44;;;;;;;1999.90;999.90;;;11.20;99.90;;;;;;5082461;28;20500;-68
2022/11/08 03:55:11;;;;;;;1999.90;999.90;;;11.10;99.90;;;;;;5085894;28;20040;-68
2022/11/08 03:57:38;;;;;;;1999.90;999.90;;;11.10;99.90;;;;;;5078726;28;20048;-68
2022/11/08 04:00:04;;;;;;;1999.90;999.90;;;11.10;99.90;;;;;;5061816;28;20043;-68
2022/11/08 04:02:30;;;;;;;1999.90;999.90;;;11.10;99.90;;;;;;5082148;28;20043;-68
2022/11/08 04:04:55;;;;;;;1999.90;999.90;;;11.10;99.90;;;;;;5084079;28;20043;-68
2022/11/08 04:07:21;;;;;;;1999.90;999.90;;;11.10;99.90;;;;;;5086226;28;20133;-68
2022/11/08 04:09:47;;;;;;;1999.90;999.90;;;11.10;99.90;;;;;;5077850;28;20052;-68
2022/11/08 04:15:15;;;;;;;1999.90;999.90;;;11.10;99.90;;;;;;5081765;28;20051;-68
2022/11/08 04:23:10;;;;;;;1999.90;999.90;;;11.10;99.90;;;;;;5096294;28;20059;-68
2022/11/08 04:25:35;;;;;;;1999.90;999.90;;;11.00;99.90;;;;;;5079631;28;20412;-68
2022/11/08 04:28:01;;;;;;;1999.90;999.90;;;11.00;99.90;;;;;;5070037;28;20032;-68
2022/11/08 04:30:27;;;;;;;1999.90;999.90;;;11.00;99.90;;;;;;5098972;28;20032;-68
2022/11/08 04:32:53;;;;;;;1999.90;999.90;;;11.00;99.90;;;;;;5084412;28;20123;-68
2022/11/08 04:35:19;;;;;;;1999.90;999.90;;;11.00;99.90;;;;;;5074093;28;20040;-67
2022/11/08 04:37:44;;;;;;;1999.90;999.90;;;11.00;99.90;;;;;;5091181;28;20120;-68
2022/11/08 04:40:10;;;;;;;1999.90;999.90;;;11.00;99.90;;;;;;5074456;28;20051;-68
2022/11/08 04:42:36;;;;;;;1999.90;999.90;;;11.00;99.90;;;;;;5074317;28;20047;-68
2022/11/08 04:45:02;;;;;;;1999.90;999.90;;;10.90;99.90;;;;;;5081697;28;20032;-67
2022/11/08 04:47:28;;;;;;;1999.90;999.90;;;11.00;99.90;;;;;;5061624;28;20105;-68
2022/11/08 04:49:53;;;;;;;1999.90;999.90;;;11.00;99.90;;;;;;5077761;28;20056;-67
2022/11/08 04:52:20;;;;;;;1999.90;999.90;;;11.00;99.90;;;;;;5088948;28;20119;-67
2022/11/08 04:54:46;;;;;;;1999.90;999.90;;;11.00;99.90;;;;;;5069265;28;20052;-68
2022/11/08 04:57:11;;;;;;;1999.90;999.90;;;11.00;99.90;;;;;;5078002;28;20146;-68
2022/11/08 04:59:38;;;;;;;1999.90;999.90;;;11.00;99.90;;;;;;5095829;28;20564;-67
2022/11/08 05:02:04;;;;;;;1999.90;999.90;;;11.00;99.90;;;;;;5074972;28;20462;-67
2022/11/08 05:04:30;;;;;;;1999.90;999.90;;;11.00;99.90;;;;;;5085313;28;20074;-67
2022/11/08 05:06:55;;;;;;;1999.90;999.90;;;11.00;99.90;;;;;;5092533;28;20044;-67
2022/11/08 05:09:21;;;;;;;1999.90;999.90;;;11.00;99.90;;;;;;5057910;28;20040;-68
2022/11/08 05:11:46;;;;;;;1999.90;999.90;;;11.00;99.90;;;;;;5081179;28;20455;-67
2022/11/08 05:14:12;;;;;;;1999.90;999.90;;;11.00;99.90;;;;;;5089655;28;20103;-67
2022/11/08 05:16:37;;;;;;;1999.90;999.90;;;11.00;99.90;;;;;;5085769;28;20036;-68
2022/11/08 05:19:03;;;;;;;1999.90;999.90;;;11.00;99.90;;;;;;5085810;28;20496;-67
2022/11/08 05:24:15;;;;;;;1999.90;999.90;;;11.00;99.90;;;;;;5074874;28;20048;-68
2022/11/08 05:26:42;;;;;;;1999.90;999.90;;;11.00;99.90;;;;;;5068990;28;20059;-68
2022/11/08 05:29:08;;;;;;;1999.90;999.90;;;11.00;99.90;;;;;;5087849;28;20044;-67
2022/11/08 05:31:34;;;;;;;1999.90;999.90;;;11.00;99.90;;;;;;5100027;28;20381;-67
2022/11/08 05:33:59;;;;;;;1999.90;999.90;;;11.00;99.90;;;;;;5098932;28;20050;-67
2022/11/08 05:36:26;;;;;;;1999.90;999.90;;;11.00;99.90;;;;;;5061729;28;20047;-67
2022/11/08 05:38:52;;;;;;;1999.90;999.90;;;11.00;99.90;;;;;;5089756;28;20075;-68
2022/11/08 05:41:20;;;;;;;1999.90;999.90;;;11.00;99.90;;;;;;5080589;28;20101;-67
2022/11/08 05:43:49;;;;;;;1999.90;999.90;;;11.00;99.90;;;;;;5080420;28;20039;-68
2022/11/08 05:46:15;;;;;;;1999.90;999.90;;;11.00;99.90;;;;;;5085855;28;20040;-67
2022/11/08 05:48:42;;;;;;;1999.90;999.90;;;10.90;99.90;;;;;;5073147;28;20060;-67
2022/11/08 05:51:09;;;;;;;1999.90;999.90;;;10.90;99.90;;;;;;5080719;28;20339;-67
2022/11/08 05:53:34;;;;;;;1999.90;999.90;;;10.90;99.90;;;;;;5086637;28;20045;-68
2022/11/08 05:56:02;;;;;;;1999.90;999.90;;;10.80;99.90;;;;;;5084144;28;20047;-68
2022/11/08 05:58:30;;;;;;;1999.90;999.90;;;10.80;99.90;;;;;;5076485;28;20150;-68
2022/11/08 06:01:00;;;;;;;1999.90;999.90;;;10.80;99.90;;;;;;5062564;28;20051;-68
2022/11/08 06:03:26;;;;;;;1999.90;999.90;;;10.80;99.90;;;;;;5085255;28;20158;-68
2022/11/08 06:05:51;;;;;;;1999.90;999.90;;;10.70;99.90;;;;;;5072943;28;20127;-67
2022/11/08 06:08:17;;;;;;;1999.90;999.90;;;10.70;99.90;;;;;;5085113;28;20488;-67
2022/11/08 06:10:42;;;;;;;1999.90;999.90;;;10.60;99.90;;;;;;5090685;28;20522;-67
2022/11/08 06:13:08;;;;;;;1999.90;999.90;;;10.60;99.90;;;;;;5073718;28;20568;-67
2022/11/08 06:15:33;;;;;;;1999.90;999.90;;;10.60;99.90;;;;;;5073450;28;20032;-67
2022/11/08 06:18:03;;;;;;;1999.90;999.90;;;10.70;99.90;;;;;;5086930;28;20077;-68
2022/11/08 06:20:29;;;;;;;1999.90;999.90;;;10.70;99.90;;;;;;5087825;28;20031;-67
2022/11/08 06:22:55;;;;;;;1999.90;999.90;;;10.70;99.90;;;;;;5078697;28;20044;-68
2022/11/08 06:25:21;;;;;;;1999.90;999.90;;;10.60;99.90;;;;;;5069874;28;20163;-68
2022/11/08 06:27:47;;;;;;;1999.90;999.90;;;10.60;99.90;;;;;;5057341;28;20044;-68
2022/11/08 06:30:13;;;;;;;1999.90;999.90;;;10.60;99.90;;;;;;5073148;28;20645;-67
2022/11/08 06:32:38;;;;;;;1999.90;999.90;;;10.60;99.90;;;;;;5082110;28;20051;-68
2022/11/08 06:35:04;;;;;;;1999.90;999.90;;;10.60;99.90;;;;;;5060208;28;20130;-67
2022/11/08 06:37:30;;;;;;;1999.90;999.90;;;10.60;99.90;;;;;;5066785;28;20043;-67
2022/11/08 06:39:57;;;;;;;1999.90;999.90;;;10.60;99.90;;;;;;5084297;28;20052;-67
2022/11/08 06:42:23;;;;;;;1999.90;999.90;;;10.60;99.90;;;;;;5084866;28;20083;-67
2022/11/08 06:44:49;;;;;;;1999.90;999.90;;;10.70;99.90;;;;;;5087059;28;20044;-67
2022/11/08 06:47:15;;;;;;;1999.90;999.90;;;10.70;99.90;;;;;;5086321;28;20485;-67
2022/11/08 06:49:40;;;;;;;1999.90;999.90;;;10.80;99.90;;;;;;5082528;28;20032;-67
2022/11/08 06:52:06;;;;;;;1999.90;999.90;;;10.80;99.90;;;;;;5104937;28;20032;-68
2022/11/08 06:54:31;;;;;;;1999.90;999.90;;;10.80;99.90;;;;;;5071222;28;20040;-67
2022/11/08 06:56:59;;;;;;;1999.90;999.90;;;10.80;99.90;;;;;;5078318;28;20400;-67
2022/11/08 06:59:26;;;;;;;1999.90;999.90;;;10.90;99.90;;;;;;5082454;28;20051;-68
2022/11/08 07:01:51;;;;;;;1999.90;999.90;;;10.90;99.90;;;;;;5079024;28;20067;-68
2022/11/08 07:04:17;;;;;;;1999.90;999.90;;;10.90;99.90;;;;;;5078819;28;20079;-68
2022/11/08 07:06:43;;;;;;;1999.90;999.90;;;11.00;99.90;;;;;;5076213;28;20576;-68
2022/11/08 07:09:08;;;;;;;1999.90;999.90;;;11.00;99.90;;;;;;5089176;28;20055;-68
2022/11/08 07:11:34;;;;;;;1999.90;999.90;;;11.10;99.90;;;;;;5097707;28;20040;-68
2022/11/08 07:13:59;;;;;;;1999.90;999.90;;;11.10;99.90;;;;;;5100532;28;20040;-68
2022/11/08 07:16:25;;;;;;;1999.90;999.90;;;11.10;99.90;;;;;;5073263;28;20048;-67
2022/11/08 07:18:51;;;;;;;1999.90;999.90;;;11.20;99.90;;;;;;5086408;28;20044;-67
2022/11/08 07:21:16;;;;;;;1999.90;999.90;;;11.20;99.90;;;;;;5082611;28;20033;-67
2022/11/08 07:23:42;;;;;;;1999.90;999.90;;;11.20;99.90;;;;;;5082095;28;20122;-67
2022/11/08 07:26:09;;;;;;;1999.90;999.90;;;11.20;99.90;;;;;;5087539;28;20494;-68
2022/11/08 07:28:35;;;;;;;1999.90;999.90;;;11.20;99.90;;;;;;5086525;28;20502;-68
2022/11/08 07:31:04;;;;;;;1999.90;999.90;;;11.30;99.90;;;;;;5087644;28;20044;-68
2022/11/08 07:33:30;;;;;;;1999.90;999.90;;;11.30;99.90;;;;;;5070371;28;20044;-68
2022/11/08 07:35:55;;;;;;;1999.90;999.90;;;11.30;99.90;;;;;;5082243;28;20390;-67
2022/11/08 07:38:22;;;;;;;1999.90;999.90;;;11.40;99.90;;;;;;5081674;28;20426;-68
2022/11/08 07:40:47;;;;;;;1999.90;999.90;;;11.40;99.90;;;;;;5073698;28;20040;-68
2022/11/08 07:43:13;;;;;;;1999.90;999.90;;;11.40;99.90;;;;;;5076001;28;20028;-68
2022/11/08 07:45:40;;;;;;;1999.90;999.90;;;11.40;99.90;;;;;;5084415;28;20396;-68
2022/11/08 07:48:08;;;;;;;1999.90;999.90;;;11.50;99.90;;;;;;5074718;28;20518;-67
2022/11/08 07:50:34;;;;;;;1999.90;999.90;;;11.50;99.90;;;;;;5058580;28;20119;-68
2022/11/08 07:52:59;;;;;;;1999.90;999.90;;;11.50;99.90;;;;;;5079137;28;20498;-67
2022/11/08 07:55:25;;;;;;;1999.90;999.90;;;11.50;99.90;;;;;;5080066;28;20598;-68
2022/11/08 07:57:55;;;;;;;1999.90;999.90;;;11.60;99.90;;;;;;5069752;28;20042;-68
2022/11/08 08:00:21;;;;;;;1999.90;999.90;;;11.70;99.90;;;;;;5073014;28;20079;-67
2022/11/08 08:02:46;;;;;;;1999.90;999.90;;;11.70;99.90;;;;;;5067432;28;20074;-68
2022/11/08 08:05:12;;;;;;;1999.90;999.90;;;11.80;99.90;;;;;;5083473;28;20040;-67
2022/11/08 08:07:37;;;;;;;1999.90;999.90;;;11.80;99.90;;;;;;5090326;28;20516;-68
2022/11/08 08:10:04;;;;;;;1999.90;999.90;;;11.90;99.90;;;;;;5081350;28;20484;-68
2022/11/08 08:12:29;;;;;;;1999.90;999.90;;;11.90;99.90;;;;;;5078521;28;20055;-68
2022/11/08 08:14:55;;;;;;;1999.90;999.90;;;11.90;99.90;;;;;;5091967;28;20037;-68
2022/11/08 08:17:20;;;;;;;1999.90;999.90;;;12.00;99.90;;;;;;5084209;28;20354;-67
2022/11/08 08:19:46;;;;;;;1999.90;999.90;;;12.00;99.90;;;;;;5089793;28;20119;-68
2022/11/08 08:22:11;;;;;;;1999.90;999.90;;;12.00;99.90;;;;;;5087080;28;20032;-68
2022/11/08 08:24:37;;;;;;;1999.90;999.90;;;12.10;99.90;;;;;;5076765;28;20032;-68
2022/11/08 08:27:03;;;;;;;1999.90;999.90;;;12.10;99.90;;;;;;5083132;28;20096;-68
2022/11/08 08:29:28;;;;;;;1999.90;999.90;;;12.10;99.90;;;;;;5078220;28;20088;-68
2022/11/08 08:31:54;;;;;;;1999.90;999.90;;;12.10;99.90;;;;;;5083018;28;20440;-68
2022/11/08 08:34:20;;;;;;;1999.90;999.90;;;12.20;99.90;;;;;;5084754;28;20051;-68
2022/11/08 08:36:45;;;;;;;1999.90;999.90;;;12.30;99.90;;;;;;5059452;28;20074;-68
2022/11/08 08:39:11;;;;;;;1999.90;999.90;;;12.50;99.90;;;;;;5092790;28;20445;-67
2022/11/08 08:41:36;;;;;;;1999.90;999.90;;;12.70;99.90;;;;;;5091455;28;20047;-68
2022/11/08 08:44:02;;;;;;;1999.90;999.90;;;12.90;99.90;;;;;;5075676;28;20479;-68
2022/11/08 08:46:28;;;;;;;1999.90;999.90;;;13.00;99.90;;;;;;5074897;28;20430;-67
2022/11/08 08:48:53;;;;;;;1999.90;999.90;;;13.00;99.90;;;;;;5086034;28;20059;-68
2022/11/08 08:51:19;;;;;;;1999.90;999.90;;;12.90;99.90;;;;;;5080307;28;20036;-68
2022/11/08 08:53:44;;;;;;;1999.90;999.90;;;12.90;99.90;;;;;;5087621;28;20047;-68
2022/11/08 08:56:10;;;;;;;1999.90;999.90;;;12.90;99.90;;;;;;5081028;28;20090;-68
2022/11/08 08:58:36;;;;;;;1999.90;999.90;;;13.00;99.90;;;;;;5073536;28;20043;-68
2022/11/08 09:01:04;;;;;;;1999.90;999.90;;;13.10;99.90;;;;;;5072302;28;20036;-68
2022/11/08 09:03:30;;;;;;;1999.90;999.90;;;13.30;99.90;;;;;;5081297;28;20078;-68
2022/11/08 09:05:59;;;;;;;1999.90;999.90;;;13.50;99.90;;;;;;5073592;28;20044;-68
2022/11/08 09:08:26;;;;;;;1999.90;999.90;;;13.60;99.90;;;;;;5073474;28;20055;-68
2022/11/08 09:10:56;;;;;;;1999.90;999.90;;;13.70;99.90;;;;;;5078636;28;20040;-68
2022/11/08 09:13:23;;;;;;;1999.90;999.90;;;13.70;99.90;;;;;;5076577;28;20090;-68
2022/11/08 09:15:48;;;;;;;1999.90;999.90;;;13.60;99.90;;;;;;5057487;28;20070;-68
2022/11/08 09:18:14;;;;;;;1999.90;999.90;;;13.50;99.90;;;;;;5073186;28;20044;-68
2022/11/08 09:20:42;;;;;;;1999.90;999.90;;;13.40;99.90;;;;;;5074105;28;20032;-68
2022/11/08 09:23:13;;;;;;;1999.90;999.90;;;13.30;99.90;;;;;;5073828;28;20037;-68
2022/11/08 09:25:38;;;;;;;1999.90;999.90;;;13.30;99.90;;;;;;5072179;28;20032;-68
2022/11/08 09:28:04;;;;;;;1999.90;999.90;;;13.30;99.90;;;;;;5069224;28;20044;-68
2022/11/08 09:30:30;;;;;;;1999.90;999.90;;;13.40;99.90;;;;;;5075544;28;20036;-68
2022/11/08 09:32:56;;;;;;;1999.90;999.90;;;13.40;99.90;;;;;;5071106;28;20082;-67
2022/11/08 09:35:21;;;;;;;1999.90;999.90;;;13.40;99.90;;;;;;5074941;28;20449;-68
2022/11/08 09:37:47;;;;;;;1999.90;999.90;;;13.50;99.90;;;;;;5055343;28;20093;-68
2022/11/08 09:40:36;;;;;;;1999.90;999.90;;;13.50;99.90;;;;;;5076347;28;20043;-68
2022/11/08 09:43:21;;;;;;;1999.90;999.90;;;13.60;99.90;;;;;;5071415;28;20034;-68
2022/11/08 09:45:49;;;;;;;1999.90;999.90;;;13.70;99.90;;;;;;5069689;28;20068;-68
2022/11/08 09:48:30;;;;;;;1999.90;999.90;;;13.60;99.90;;;;;;5083421;28;20090;-68
2022/11/08 09:50:57;;;;;;;1999.90;999.90;;;13.70;99.90;;;;;;5068577;28;20415;-67
2022/11/08 09:53:35;;;;;;;1999.90;999.90;;;13.70;99.90;;;;;;5085094;28;20305;-67
2022/11/08 09:56:14;;;;;;;1999.90;999.90;;;13.80;99.90;;;;;;5096136;28;20051;-67
2022/11/08 09:59:08;;;;;;;1999.90;999.90;;;13.90;99.90;;;;;;5090180;28;20539;-67
2022/11/08 10:01:35;;;;;;;1999.90;999.90;;;13.90;99.90;;;;;;5075318;28;20089;-67
2022/11/08 10:04:05;;;;;;;1999.90;999.90;;;13.80;99.90;;;;;;5082754;28;20526;-67
2022/11/08 10:06:56;;;;;;;1999.90;999.90;;;13.80;99.90;;;;;;5086952;28;20052;-67
2022/11/08 10:09:52;;;;;;;1999.90;999.90;;;13.80;99.90;;;;;;5087296;28;20474;-68
2022/11/08 10:12:32;;;;;;;1999.90;999.90;;;13.80;99.90;;;;;;5091799;28;20059;-67
2022/11/08 10:15:10;;;;;;;1999.90;999.90;;;13.80;99.90;;;;;;5096031;28;20416;-67
2022/11/08 10:18:13;;;;;;;1999.90;999.90;;;13.80;99.90;;;;;;5088198;28;20067;-67
2022/11/08 10:21:00;;;;;;;1999.90;999.90;;;13.80;99.90;;;;;;5080592;28;20040;-67
2022/11/08 10:23:54;;;;;;;1999.90;999.90;;;13.80;99.90;;;;;;5074361;28;20137;-67
2022/11/08 10:26:24;;;;;;;1999.90;999.90;;;13.90;99.90;;;;;;5071398;28;20115;-67
2022/11/08 10:28:56;;;;;;;1999.90;999.90;;;13.90;99.90;;;;;;5071932;28;20048;-67
2022/11/08 10:31:21;;;;;;;1999.90;999.90;;;13.90;99.90;;;;;;5079932;28;20043;-67
2022/11/08 10:33:51;;;;;;;1999.90;999.90;;;13.90;99.90;;;;;;5095000;28;20463;-67
2022/11/08 10:36:26;;;;;;;1999.90;999.90;;;13.90;99.90;;;;;;5079745;28;20102;-67
2022/11/08 10:39:07;;;;;;;1999.90;999.90;;;13.90;99.90;;;;;;5081013;28;20063;-67
2022/11/08 10:42:01;;;;;;;1999.90;999.90;;;13.80;99.90;;;;;;5077638;28;20047;-67
2022/11/08 10:44:27;;;;;;;1999.90;999.90;;;13.80;99.90;;;;;;5075750;28;20034;-67
2022/11/08 10:46:56;;;;;;;1999.90;999.90;;;13.70;99.90;;;;;;5082916;28;20126;-67
2022/11/08 10:49:28;;;;;;;1999.90;999.90;;;13.70;99.90;;;;;;5098617;28;20572;-67
2022/11/08 10:52:16;;;;;;;1999.90;999.90;;;13.60;99.90;;;;;;5083755;28;20041;-67
2022/11/08 10:54:44;;;;;;;1999.90;999.90;;;13.60;99.90;;;;;;5079251;28;20511;-67
2022/11/08 10:57:12;;;;;;;1999.90;999.90;;;13.60;99.90;;;;;;5084249;28;20044;-67
2022/11/08 10:59:38;;;;;;;1999.90;999.90;;;13.60;99.90;;;;;;5083283;28;20068;-67
2022/11/08 11:02:33;;;;;;;1999.90;999.90;;;13.60;99.90;;;;;;5064550;28;20082;-67
2022/11/08 11:05:14;;;;;;;1999.90;999.90;;;13.60;99.90;;;;;;5081294;28;20040;-67
2022/11/08 11:07:43;;;;;;;1999.90;999.90;;;13.70;99.90;;;;;;5086488;28;20083;-67
2022/11/08 11:10:28;;;;;;;1999.90;999.90;;;13.80;99.90;;;;;;5083319;28;20036;-67
2022/11/08 11:13:18;;;;;;;1999.90;999.90;;;13.80;99.90;;;;;;5078276;28;20047;-67
2022/11/08 11:16:12;;;;;;;1999.90;999.90;;;13.90;99.90;;;;;;5082456;28;20086;-67
2022/11/08 11:18:46;;;;;;;1999.90;999.90;;;13.90;99.90;;;;;;5075541;28;20044;-68
2022/11/08 11:21:36;;;;;;;1999.90;999.90;;;14.00;99.90;;;;;;5068524;28;20036;-68
2022/11/08 11:24:21;;;;;;;1999.90;999.90;;;14.00;99.90;;;;;;5068159;28;20040;-67
2022/11/08 11:26:55;;;;;;;1999.90;999.90;;;14.10;99.90;;;;;;5073968;28;20044;-67
2022/11/08 11:29:31;;;;;;;1999.90;999.90;;;14.20;99.90;;;;;;5070515;28;20093;-68
2022/11/08 11:32:09;;;;;;;1999.90;999.90;;;14.30;99.90;;;;;;5068724;28;20445;-67
2022/11/08 11:34:42;;;;;;;1999.90;999.90;;;14.40;99.90;;;;;;5080855;28;20048;-67
2022/11/08 11:37:08;;;;;;;1999.90;999.90;;;14.50;99.90;;;;;;5072526;28;20040;-68
2022/11/08 11:39:38;;;;;;;1999.90;999.90;;;14.60;99.90;;;;;;5082141;28;20036;-67
2022/11/08 11:42:30;;;;;;;1999.90;999.90;;;14.60;99.90;;;;;;5086980;28;20562;-67
2022/11/08 11:45:04;;;;;;;1999.90;999.90;;;14.60;99.90;;;;;;5084123;28;20051;-67
2022/11/08 11:47:36;;;;;;;1999.90;999.90;;;14.50;99.90;;;;;;5079326;28;20063;-67
2022/11/08 11:50:31;;;;;;;1999.90;999.90;;;14.50;99.90;;;;;;5082998;28;20044;-67
2022/11/08 11:52:58;;;;;;;1999.90;999.90;;;14.50;99.90;;;;;;5057651;28;20135;-67
2022/11/08 11:55:47;;;;;;;1999.90;999.90;;;14.50;99.90;;;;;;5084856;28;20120;-67
2022/11/08 11:58:47;;;;;;;1999.90;999.90;;;14.50;99.90;;;;;;5074874;28;20048;-67
2022/11/08 12:01:35;;;;;;;1999.90;999.90;;;14.60;99.90;;;;;;5078440;28;20046;-67
2022/11/08 12:04:41;;;;;;;1999.90;999.90;;;14.60;99.90;;;;;;5073979;28;20055;-67
2022/11/08 12:07:14;;;;;;;1999.90;999.90;;;14.60;99.90;;;;;;5082765;28;20052;-67
2022/11/08 12:09:52;;;;;;;;;;;14.60;99.90;;;;;;5096451;28;20044;-67
2022/11/08 12:12:31;;;;;;;1999.90;999.90;;;14.60;99.90;;;;;;5084344;28;19919;-67
2022/11/08 12:15:10;;;;;;;1999.90;999.90;;;14.50;99.90;;;;;;5083505;28;20108;-67
2022/11/08 12:17:57;;;;;;;1999.90;999.90;;;14.50;99.90;;;;;;5078223;28;20039;-67
2022/11/08 12:20:28;;;;;;;1999.90;999.90;;;14.60;99.90;;;;;;5064899;28;20036;-67
2022/11/08 12:23:30;;;;;;;1999.90;999.90;;;14.50;99.90;;;;;;5085903;28;20040;-67
2022/11/08 12:26:18;;;;;;;1999.90;999.90;;;14.50;99.90;;;;;;5075947;28;20040;-67
2022/11/08 12:29:00;;;;;;;1999.90;999.90;;;14.50;99.90;;;;;;5084508;28;20040;-67
2022/11/08 12:31:32;;;;;;;1999.90;999.90;;;14.50;99.90;;;;;;5075957;28;20449;-67
2022/11/08 12:34:09;;;;;;;1999.90;999.90;;;14.40;99.90;;;;;;5071254;28;20032;-67